createdAt,value
2018-05-18T00:00:30.001Z,1014.64
2018-05-18T00:01:30.020Z,1014.67
2018-05-18T00:02:30.039Z,1014.67
2018-05-18T00:03:30.058Z,1014.71
2018-05-18T00:04:30.078Z,1014.70
2018-05-18T00:05:30.095Z,1014.67
2018-05-18T00:06:30.118Z,1014.66
2018-05-18T00:07:30.132Z,1014.66
2018-05-18T00:08:30.151Z,1014.66
2018-05-18T00:09:30.175Z,1014.66
2018-05-18T00:10:30.193Z,1014.65
2018-05-18T00:11:30.208Z,1014.65
2018-05-18T00:12:30.227Z,1014.65
2018-05-18T00:13:30.247Z,1014.67
2018-05-18T00:14:30.265Z,1014.60
2018-05-18T00:15:30.282Z,1014.62
2018-05-18T00:16:30.302Z,1014.65
2018-05-18T00:17:30.321Z,1014.63
2018-05-18T00:18:30.342Z,1014.66
2018-05-18T00:19:30.358Z,1014.60
2018-05-18T00:20:30.376Z,1014.63
2018-05-18T00:21:30.399Z,1014.60
2018-05-18T00:22:30.414Z,1014.57
2018-05-18T00:23:30.432Z,1014.58
2018-05-18T00:24:30.452Z,1014.56
2018-05-18T00:25:30.471Z,1014.54
2018-05-18T00:26:30.493Z,1014.55
2018-05-18T00:27:30.510Z,1014.56
2018-05-18T00:28:30.529Z,1014.55
2018-05-18T00:29:30.545Z,1014.55
2018-05-18T00:30:30.565Z,1014.58
2018-05-18T00:31:30.582Z,1014.55
2018-05-18T00:32:30.602Z,1014.56
2018-05-18T00:33:30.620Z,1014.57
2018-05-18T00:34:30.640Z,1014.54
2018-05-18T00:35:30.657Z,1014.57
2018-05-18T00:36:30.677Z,1014.60
2018-05-18T00:37:30.698Z,1014.57
2018-05-18T00:38:30.715Z,1014.60
2018-05-18T00:39:30.732Z,1014.56
2018-05-18T00:40:30.751Z,1014.56
2018-05-18T00:41:30.771Z,1014.56
2018-05-18T00:42:30.790Z,1014.56
2018-05-18T00:43:30.809Z,1014.57
2018-05-18T00:44:30.827Z,1014.55
2018-05-18T00:45:30.846Z,1014.57
2018-05-18T00:46:30.864Z,1014.54
2018-05-18T00:47:30.882Z,1014.60
2018-05-18T00:48:30.902Z,1014.59
2018-05-18T00:49:30.920Z,1014.57
2018-05-18T00:50:30.940Z,1014.55
2018-05-18T00:51:30.959Z,1014.54
2018-05-18T00:52:30.977Z,1014.54
2018-05-18T00:53:30.996Z,1014.56
2018-05-18T00:54:31.016Z,1014.50
2018-05-18T00:55:31.033Z,1014.53
2018-05-18T00:56:31.053Z,1014.54
2018-05-18T00:57:31.102Z,1014.52
2018-05-18T00:58:31.090Z,1014.50
2018-05-18T00:59:31.107Z,1014.45
2018-05-18T01:00:31.126Z,1014.47
2018-05-18T01:01:31.144Z,1014.49
2018-05-18T01:02:31.164Z,1014.45
2018-05-18T01:03:31.185Z,1014.48
2018-05-18T01:04:31.200Z,1014.46
2018-05-18T01:05:31.219Z,1014.48
2018-05-18T01:06:31.239Z,1014.45
2018-05-18T01:07:31.257Z,1014.45
2018-05-18T01:08:31.276Z,1014.42
2018-05-18T01:09:31.295Z,1014.41
2018-05-18T01:10:31.316Z,1014.40
2018-05-18T01:11:31.332Z,1014.42
2018-05-18T01:12:31.351Z,1014.40
2018-05-18T01:13:31.369Z,1014.39
2018-05-18T01:14:31.388Z,1014.46
2018-05-18T01:15:31.415Z,1014.41
2018-05-18T01:16:31.425Z,1014.42
2018-05-18T01:17:31.444Z,1014.41
2018-05-18T01:18:31.462Z,1014.44
2018-05-18T01:19:31.481Z,1014.41
2018-05-18T01:20:31.500Z,1014.39
2018-05-18T01:21:31.518Z,1014.38
2018-05-18T01:22:31.536Z,1014.34
2018-05-18T01:23:31.555Z,1014.39
2018-05-18T01:24:31.605Z,1014.40
2018-05-18T01:25:31.595Z,1014.37
2018-05-18T01:26:31.614Z,1014.41
2018-05-18T01:27:31.630Z,1014.43
2018-05-18T01:28:31.650Z,1014.36
2018-05-18T01:29:31.667Z,1014.42
2018-05-18T01:30:31.688Z,1014.40
2018-05-18T01:31:31.704Z,1014.45
2018-05-18T01:32:31.724Z,1014.48
2018-05-18T01:33:31.741Z,1014.42
2018-05-18T01:34:31.761Z,1014.46
2018-05-18T01:35:31.779Z,1014.41
2018-05-18T01:36:31.798Z,1014.48
2018-05-18T01:37:31.823Z,1014.48
2018-05-18T01:38:31.836Z,1014.48
2018-05-18T01:39:31.853Z,1014.55
2018-05-18T01:40:31.871Z,1014.54
2018-05-18T01:41:31.890Z,1014.43
2018-05-18T01:42:31.913Z,1014.42
2018-05-18T01:43:31.929Z,1014.44
2018-05-18T01:44:31.946Z,1014.42
2018-05-18T01:45:31.965Z,1014.43
2018-05-18T01:46:31.984Z,1014.46
2018-05-18T01:47:32.002Z,1014.40
2018-05-18T01:48:32.021Z,1014.45
2018-05-18T01:49:32.040Z,1014.40
2018-05-18T01:50:32.057Z,1014.43
2018-05-18T01:51:32.075Z,1014.40
2018-05-18T01:52:32.095Z,1014.39
2018-05-18T01:53:32.113Z,1014.39
2018-05-18T01:54:32.133Z,1014.43
2018-05-18T01:55:32.149Z,1014.39
2018-05-18T01:56:32.168Z,1014.38
2018-05-18T01:57:32.187Z,1014.40
2018-05-18T01:58:32.206Z,1014.37
2018-05-18T01:59:32.224Z,1014.38
2018-05-18T02:00:32.242Z,1014.35
2018-05-18T02:01:32.260Z,1014.38
2018-05-18T02:02:32.280Z,1014.38
2018-05-18T02:03:32.298Z,1014.41
2018-05-18T02:04:32.317Z,1014.35
2018-05-18T02:05:32.335Z,1014.36
2018-05-18T02:06:32.355Z,1014.36
2018-05-18T02:07:32.370Z,1014.40
2018-05-18T02:08:32.390Z,1014.38
2018-05-18T02:09:32.408Z,1014.37
2018-05-18T02:10:32.427Z,1014.34
2018-05-18T02:11:32.444Z,1014.36
2018-05-18T02:12:32.463Z,1014.38
2018-05-18T02:13:32.482Z,1014.37
2018-05-18T02:14:32.501Z,1014.36
2018-05-18T02:15:32.523Z,1014.35
2018-05-18T02:16:32.537Z,1014.37
2018-05-18T02:17:32.555Z,1014.36
2018-05-18T02:18:32.574Z,1014.41
2018-05-18T02:19:32.594Z,1014.39
2018-05-18T02:20:32.610Z,1014.39
2018-05-18T02:21:32.629Z,1014.37
2018-05-18T02:22:32.648Z,1014.43
2018-05-18T02:23:32.666Z,1014.39
2018-05-18T02:24:32.685Z,1014.39
2018-05-18T02:25:32.705Z,1014.41
2018-05-18T02:26:32.723Z,1014.39
2018-05-18T02:27:32.740Z,1014.36
2018-05-18T02:28:32.759Z,1014.40
2018-05-18T02:29:32.780Z,1014.32
2018-05-18T02:30:32.798Z,1014.36
2018-05-18T02:31:32.814Z,1014.39
2018-05-18T02:32:32.833Z,1014.37
2018-05-18T02:33:32.855Z,1014.37
2018-05-18T02:34:32.871Z,1014.36
2018-05-18T02:35:32.890Z,1014.32
2018-05-18T02:36:32.908Z,1014.33
2018-05-18T02:37:32.925Z,1014.30
2018-05-18T02:38:32.945Z,1014.35
2018-05-18T02:39:32.963Z,1014.25
2018-05-18T02:40:32.983Z,1014.28
2018-05-18T02:41:33.007Z,1014.26
2018-05-18T02:42:33.021Z,1014.28
2018-05-18T02:43:33.037Z,1014.28
2018-05-18T02:44:33.056Z,1014.32
2018-05-18T02:45:33.074Z,1014.31
2018-05-18T02:46:33.093Z,1014.31
2018-05-18T02:47:33.110Z,1014.27
2018-05-18T02:48:33.130Z,1014.28
2018-05-18T02:49:33.151Z,1014.28
2018-05-18T02:50:33.167Z,1014.31
2018-05-18T02:51:33.186Z,1014.32
2018-05-18T02:52:33.204Z,1014.29
2018-05-18T02:53:33.221Z,1014.29
2018-05-18T02:54:33.241Z,1014.33
2018-05-18T02:55:33.259Z,1014.28
2018-05-18T02:56:33.278Z,1014.30
2018-05-18T02:57:33.297Z,1014.28
2018-05-18T02:58:33.317Z,1014.31
2018-05-18T02:59:33.332Z,1014.32
2018-05-18T03:00:33.351Z,1014.29
2018-05-18T03:01:33.370Z,1014.32
2018-05-18T03:02:33.389Z,1014.33
2018-05-18T03:03:33.407Z,1014.26
2018-05-18T03:04:33.426Z,1014.25
2018-05-18T03:05:33.450Z,1014.30
2018-05-18T03:06:33.463Z,1014.35
2018-05-18T03:07:33.481Z,1014.30
2018-05-18T03:08:33.499Z,1014.33
2018-05-18T03:09:33.518Z,1014.35
2018-05-18T03:10:33.537Z,1014.34
2018-05-18T03:11:33.555Z,1014.32
2018-05-18T03:12:33.572Z,1014.36
2018-05-18T03:13:33.591Z,1014.31
2018-05-18T03:14:33.612Z,1014.36
2018-05-18T03:15:33.628Z,1014.33
2018-05-18T03:16:33.650Z,1014.30
2018-05-18T03:17:33.668Z,1014.41
2018-05-18T03:18:33.684Z,1014.34
2018-05-18T03:19:33.703Z,1014.38
2018-05-18T03:20:33.721Z,1014.37
2018-05-18T03:21:33.748Z,1014.39
2018-05-18T03:22:33.758Z,1014.38
2018-05-18T03:23:33.777Z,1014.38
2018-05-18T03:24:33.796Z,1014.37
2018-05-18T03:25:33.814Z,1014.37
2018-05-18T03:26:33.833Z,1014.32
2018-05-18T03:27:33.851Z,1014.33
2018-05-18T03:28:33.871Z,1014.35
2018-05-18T03:29:33.887Z,1014.34
2018-05-18T03:30:33.907Z,1014.32
2018-05-18T03:31:33.923Z,1014.31
2018-05-18T03:32:33.942Z,1014.33
2018-05-18T03:33:33.961Z,1014.39
2018-05-18T03:34:33.979Z,1014.40
2018-05-18T03:35:33.998Z,1014.33
2018-05-18T03:36:34.018Z,1014.36
2018-05-18T03:37:34.034Z,1014.35
2018-05-18T03:38:34.052Z,1014.35
2018-05-18T03:39:34.072Z,1014.39
2018-05-18T03:40:34.090Z,1014.40
2018-05-18T03:41:34.109Z,1014.39
2018-05-18T03:42:34.128Z,1014.35
2018-05-18T03:43:34.145Z,1014.39
2018-05-18T03:44:34.166Z,1014.39
2018-05-18T03:45:34.183Z,1014.37
2018-05-18T03:46:34.201Z,1014.38
2018-05-18T03:47:34.219Z,1014.40
2018-05-18T03:48:34.238Z,1014.32
2018-05-18T03:49:34.256Z,1014.41
2018-05-18T03:50:34.274Z,1014.36
2018-05-18T03:51:34.291Z,1014.42
2018-05-18T03:52:34.313Z,1014.39
2018-05-18T03:53:34.330Z,1014.41
2018-05-18T03:54:34.348Z,1014.42
2018-05-18T03:55:34.364Z,1014.39
2018-05-18T03:56:34.384Z,1014.49
2018-05-18T03:57:34.403Z,1014.48
2018-05-18T03:58:34.420Z,1014.47
2018-05-18T03:59:34.439Z,1014.48
2018-05-18T04:00:34.457Z,1014.49
2018-05-18T04:01:34.478Z,1014.50
2018-05-18T04:02:34.498Z,1014.47
2018-05-18T04:03:34.511Z,1014.51
2018-05-18T04:04:34.531Z,1014.52
2018-05-18T04:05:34.549Z,1014.51
2018-05-18T04:06:34.568Z,1014.52
2018-05-18T04:07:34.586Z,1014.54
2018-05-18T04:08:34.603Z,1014.57
2018-05-18T04:09:34.623Z,1014.52
2018-05-18T04:10:34.641Z,1014.53
2018-05-18T04:11:34.659Z,1014.51
2018-05-18T04:12:34.677Z,1014.53
2018-05-18T04:13:34.696Z,1014.55
2018-05-18T04:14:34.715Z,1014.54
2018-05-18T04:15:34.732Z,1014.56
2018-05-18T04:16:34.829Z,1014.61
2018-05-18T04:17:34.776Z,1014.59
2018-05-18T04:18:34.789Z,1014.60
2018-05-18T04:19:34.806Z,1014.62
2018-05-18T04:20:34.825Z,1014.63
2018-05-18T04:21:34.844Z,1014.67
2018-05-18T04:22:34.864Z,1014.67
2018-05-18T04:23:34.878Z,1014.65
2018-05-18T04:24:34.897Z,1014.67
2018-05-18T04:25:34.917Z,1014.66
2018-05-18T04:26:34.936Z,1014.70
2018-05-18T04:27:34.953Z,1014.65
2018-05-18T04:28:34.972Z,1014.68
2018-05-18T04:29:34.989Z,1014.67
2018-05-18T04:30:35.014Z,1014.67
2018-05-18T04:31:35.029Z,1014.72
2018-05-18T04:32:35.047Z,1014.71
2018-05-18T04:33:35.063Z,1014.67
2018-05-18T04:34:35.083Z,1014.74
2018-05-18T04:35:35.100Z,1014.69
2018-05-18T04:36:35.118Z,1014.68
2018-05-18T04:37:35.138Z,1014.77
2018-05-18T04:38:35.156Z,1014.75
2018-05-18T04:39:35.175Z,1014.72
2018-05-18T04:40:35.192Z,1014.75
2018-05-18T04:41:35.212Z,1014.71
2018-05-18T04:42:35.231Z,1014.78
2018-05-18T04:43:35.313Z,1014.79
2018-05-18T04:44:35.265Z,1014.72
2018-05-18T04:45:35.285Z,1014.79
2018-05-18T04:46:35.307Z,1014.76
2018-05-18T04:47:35.326Z,1014.80
2018-05-18T04:48:35.345Z,1014.79
2018-05-18T04:49:35.359Z,1014.76
2018-05-18T04:50:35.377Z,1014.83
2018-05-18T04:51:35.395Z,1014.80
2018-05-18T04:52:35.413Z,1014.78
2018-05-18T04:53:35.434Z,1014.80
2018-05-18T04:54:35.452Z,1014.80
2018-05-18T04:55:35.470Z,1014.82
2018-05-18T04:56:35.487Z,1014.85
2018-05-18T04:57:35.506Z,1014.88
2018-05-18T04:58:35.525Z,1014.84
2018-05-18T04:59:35.542Z,1014.83
2018-05-18T05:00:35.564Z,1014.87
2018-05-18T05:01:35.584Z,1014.87
2018-05-18T05:02:35.598Z,1014.90
2018-05-18T05:03:35.616Z,1014.86
2018-05-18T05:04:35.635Z,1014.84
2018-05-18T05:05:35.694Z,1014.89
2018-05-18T05:06:35.672Z,1014.83
2018-05-18T05:07:35.690Z,1014.82
2018-05-18T05:08:35.708Z,1014.85
2018-05-18T05:09:35.726Z,1014.80
2018-05-18T05:10:35.745Z,1014.87
2018-05-18T05:11:35.763Z,1014.83
2018-05-18T05:12:35.868Z,1014.91
2018-05-18T05:13:35.799Z,1014.85
2018-05-18T05:14:35.820Z,1014.90
2018-05-18T05:15:35.842Z,1014.87
2018-05-18T05:16:35.855Z,1014.90
2018-05-18T05:17:35.874Z,1014.96
2018-05-18T05:18:35.893Z,1014.99
2018-05-18T05:19:35.915Z,1015.00
2018-05-18T05:20:35.929Z,1014.99
2018-05-18T05:21:35.954Z,1014.99
2018-05-18T05:22:35.966Z,1015.05
2018-05-18T05:23:35.987Z,1015.03
2018-05-18T05:24:36.002Z,1015.04
2018-05-18T05:25:36.022Z,1015.03
2018-05-18T05:26:36.041Z,1015.06
2018-05-18T05:27:36.058Z,1015.10
2018-05-18T05:28:36.077Z,1015.11
2018-05-18T05:29:36.096Z,1015.12
2018-05-18T05:30:36.130Z,1015.12
2018-05-18T05:31:36.133Z,1015.08
2018-05-18T05:32:36.152Z,1015.05
2018-05-18T05:33:36.171Z,1015.04
2018-05-18T05:34:36.189Z,1015.10
2018-05-18T05:35:36.207Z,1015.06
2018-05-18T05:36:36.254Z,1015.08
2018-05-18T05:37:36.244Z,1015.10
2018-05-18T05:38:36.268Z,1015.14
2018-05-18T05:39:36.282Z,1015.13
2018-05-18T05:40:36.299Z,1015.13
2018-05-18T05:41:36.319Z,1015.17
2018-05-18T05:42:36.374Z,1015.19
2018-05-18T05:43:36.357Z,1015.09
2018-05-18T05:44:36.375Z,1015.12
2018-05-18T05:45:36.395Z,1015.14
2018-05-18T05:46:36.414Z,1015.12
2018-05-18T05:47:36.435Z,1015.14
2018-05-18T05:48:36.451Z,1015.09
2018-05-18T05:49:36.469Z,1015.07
2018-05-18T05:50:36.487Z,1015.08
2018-05-18T05:51:36.507Z,1015.09
2018-05-18T05:52:36.526Z,1015.09
2018-05-18T05:53:36.545Z,1015.10
2018-05-18T05:54:36.564Z,1015.08
2018-05-18T05:55:36.585Z,1015.11
2018-05-18T05:56:36.601Z,1015.16
2018-05-18T05:57:36.620Z,1015.05
2018-05-18T05:58:36.639Z,1015.13
2018-05-18T05:59:36.658Z,1015.09
2018-05-18T06:00:36.676Z,1015.12
2018-05-18T06:01:36.699Z,1015.16
2018-05-18T06:02:36.715Z,1015.18
2018-05-18T06:03:36.733Z,1015.26
2018-05-18T06:04:36.753Z,1015.24
2018-05-18T06:05:36.772Z,1015.24
2018-05-18T06:06:36.792Z,1015.24
2018-05-18T06:07:36.810Z,1015.26
2018-05-18T06:08:36.829Z,1015.21
2018-05-18T06:09:36.852Z,1015.18
2018-05-18T06:10:36.867Z,1015.20
2018-05-18T06:11:36.885Z,1015.26
2018-05-18T06:12:36.904Z,1015.24
2018-05-18T06:13:36.925Z,1015.22
2018-05-18T06:14:36.944Z,1015.16
2018-05-18T06:15:36.962Z,1015.21
2018-05-18T06:16:36.981Z,1015.20
2018-05-18T06:17:37.003Z,1015.25
2018-05-18T06:18:37.020Z,1015.22
2018-05-18T06:19:37.096Z,1015.18
2018-05-18T06:20:37.061Z,1015.24
2018-05-18T06:21:37.078Z,1015.27
2018-05-18T06:22:37.098Z,1015.25
2018-05-18T06:23:37.116Z,1015.26
2018-05-18T06:24:37.138Z,1015.18
2018-05-18T06:25:37.154Z,1015.23
2018-05-18T06:26:37.173Z,1015.24
2018-05-18T06:27:37.191Z,1015.24
2018-05-18T06:28:37.218Z,1015.31
2018-05-18T06:29:37.232Z,1015.35
2018-05-18T06:30:37.252Z,1015.30
2018-05-18T06:31:37.270Z,1015.34
2018-05-18T06:32:37.293Z,1015.34
2018-05-18T06:33:37.309Z,1015.34
2018-05-18T06:34:37.350Z,1015.43
2018-05-18T06:35:37.347Z,1015.42
2018-05-18T06:36:37.371Z,1015.62
2018-05-18T06:37:37.387Z,1015.55
2018-05-18T06:38:37.407Z,1015.62
2018-05-18T06:39:37.425Z,1015.49
2018-05-18T06:40:37.446Z,1015.53
2018-05-18T06:41:37.466Z,1015.49
2018-05-18T06:42:37.485Z,1015.49
2018-05-18T06:43:37.504Z,1015.50
2018-05-18T06:44:37.522Z,1015.47
2018-05-18T06:45:37.545Z,1015.51
2018-05-18T06:46:37.562Z,1015.54
2018-05-18T06:47:37.585Z,1015.46
2018-05-18T06:48:37.603Z,1015.46
2018-05-18T06:49:37.622Z,1015.45
2018-05-18T06:50:37.642Z,1015.43
2018-05-18T06:51:37.662Z,1015.46
2018-05-18T06:52:37.712Z,1015.43
2018-05-18T06:53:37.702Z,1015.42
2018-05-18T06:54:37.721Z,1015.43
2018-05-18T06:55:37.740Z,1015.46
2018-05-18T06:56:37.762Z,1015.41
2018-05-18T06:57:37.779Z,1015.41
2018-05-18T06:58:37.855Z,1015.43
2018-05-18T06:59:37.820Z,1015.47
2018-05-18T07:00:37.838Z,1015.51
2018-05-18T07:01:37.859Z,1015.49
2018-05-18T07:02:37.880Z,1015.50
2018-05-18T07:03:37.898Z,1015.51
2018-05-18T07:04:37.919Z,1015.56
2018-05-18T07:05:37.939Z,1015.52
2018-05-18T07:06:37.962Z,1015.52
2018-05-18T07:07:37.978Z,1015.53
2018-05-18T07:08:37.998Z,1015.54
2018-05-18T07:09:38.018Z,1015.49
2018-05-18T07:10:38.091Z,1015.47
2018-05-18T07:11:38.063Z,1015.45
2018-05-18T07:12:38.078Z,1015.47
2018-05-18T07:13:38.099Z,1015.52
2018-05-18T07:14:38.119Z,1015.54
2018-05-18T07:15:38.139Z,1015.57
2018-05-18T07:16:38.172Z,1015.60
2018-05-18T07:17:38.179Z,1015.72
2018-05-18T07:18:38.199Z,1015.66
2018-05-18T07:19:38.224Z,1016.21
2018-05-18T07:20:38.238Z,1016.06
2018-05-18T07:21:38.258Z,1016.02
2018-05-18T07:22:38.279Z,1015.66
2018-05-18T07:23:38.302Z,1015.63
2018-05-18T07:24:38.319Z,1015.67
2018-05-18T07:25:38.344Z,1015.66
2018-05-18T07:26:38.361Z,1015.59
2018-05-18T07:27:38.381Z,1015.53
2018-05-18T07:28:38.401Z,1015.48
2018-05-18T07:29:38.422Z,1015.47
2018-05-18T07:30:38.442Z,1015.47
2018-05-18T07:31:38.462Z,1015.47
2018-05-18T07:32:38.491Z,1015.47
2018-05-18T07:33:38.503Z,1015.59
2018-05-18T07:34:38.529Z,1015.54
2018-05-18T07:35:38.545Z,1015.56
2018-05-18T07:36:38.570Z,1015.54
2018-05-18T07:37:38.588Z,1015.78
2018-05-18T07:38:38.609Z,1015.70
2018-05-18T07:39:38.632Z,1015.91
2018-05-18T07:40:38.648Z,1015.65
2018-05-18T07:41:38.669Z,1015.64
2018-05-18T07:42:38.690Z,1015.68
2018-05-18T07:43:38.709Z,1015.64
2018-05-18T07:44:38.733Z,1015.70
2018-05-18T07:45:38.753Z,1015.58
2018-05-18T07:46:38.774Z,1015.54
2018-05-18T07:47:38.795Z,1015.57
2018-05-18T07:48:38.823Z,1015.55
2018-05-18T07:49:38.836Z,1015.52
2018-05-18T07:50:38.856Z,1015.75
2018-05-18T07:51:38.878Z,1015.64
2018-05-18T07:52:38.921Z,1015.58
2018-05-18T07:53:39.087Z,1015.57
2018-05-18T07:54:38.953Z,1015.53
2018-05-18T07:55:38.963Z,1015.55
2018-05-18T07:56:38.984Z,1015.62
2018-05-18T07:57:39.005Z,1015.58
2018-05-18T07:58:39.027Z,1015.47
2018-05-18T07:59:39.047Z,1015.53
2018-05-18T08:00:39.069Z,1015.55
2018-05-18T08:01:39.090Z,1015.51
2018-05-18T08:02:39.111Z,1015.52
2018-05-18T08:03:39.130Z,1015.50
2018-05-18T08:04:39.156Z,1015.48
2018-05-18T08:05:39.378Z,1015.56
2018-05-18T08:06:39.200Z,1015.53
2018-05-18T08:07:39.572Z,1015.49
2018-05-18T08:08:39.237Z,1015.54
2018-05-18T08:09:39.260Z,1015.55
2018-05-18T08:10:39.282Z,1015.59
2018-05-18T08:11:39.301Z,1015.97
2018-05-18T08:12:39.321Z,1015.76
2018-05-18T08:13:39.341Z,1015.69
2018-05-18T08:14:39.364Z,1015.69
2018-05-18T08:15:39.383Z,1015.70
2018-05-18T08:16:39.406Z,1015.70
2018-05-18T08:17:39.426Z,1015.72
2018-05-18T08:18:39.448Z,1015.68
2018-05-18T08:19:39.469Z,1015.69
2018-05-18T08:20:39.491Z,1015.70
2018-05-18T08:21:39.612Z,1015.73
2018-05-18T08:22:39.533Z,1015.70
2018-05-18T08:23:39.553Z,1015.70
2018-05-18T08:24:39.575Z,1015.70
2018-05-18T08:25:39.596Z,1016.05
2018-05-18T08:26:39.618Z,1015.72
2018-05-18T08:27:39.698Z,1015.67
2018-05-18T08:28:39.661Z,1015.73
2018-05-18T08:29:39.687Z,1015.71
2018-05-18T08:30:39.703Z,1015.72
2018-05-18T08:31:39.724Z,1015.73
2018-05-18T08:32:39.745Z,1015.82
2018-05-18T08:33:39.767Z,1016.07
2018-05-18T08:34:39.788Z,1016.03
2018-05-18T08:35:39.810Z,1016.14
2018-05-18T08:36:39.830Z,1016.03
2018-05-18T08:37:39.852Z,1016.23
2018-05-18T08:38:39.874Z,1015.91
2018-05-18T08:39:39.895Z,1016.04
2018-05-18T08:40:39.917Z,1015.86
2018-05-18T08:41:39.940Z,1015.87
2018-05-18T08:42:39.963Z,1015.76
2018-05-18T08:43:39.986Z,1015.69
2018-05-18T08:44:40.009Z,1015.66
2018-05-18T08:45:40.031Z,1015.63
2018-05-18T08:46:40.056Z,1015.72
2018-05-18T08:47:40.076Z,1015.72
2018-05-18T08:48:40.100Z,1015.71
2018-05-18T08:49:40.123Z,1015.71
2018-05-18T08:50:40.149Z,1015.93
2018-05-18T08:51:40.170Z,1015.68
2018-05-18T08:52:40.193Z,1015.68
2018-05-18T08:53:40.214Z,1015.62
2018-05-18T08:54:40.239Z,1015.66
2018-05-18T08:55:40.258Z,1015.99
2018-05-18T08:56:40.282Z,1016.10
2018-05-18T08:57:40.304Z,1016.16
2018-05-18T08:58:40.328Z,1016.16
2018-05-18T08:59:40.354Z,1016.20
2018-05-18T09:00:40.502Z,1016.19
2018-05-18T09:01:40.395Z,1016.14
2018-05-18T09:02:40.419Z,1016.14
2018-05-18T09:03:40.441Z,1016.15
2018-05-18T09:04:40.465Z,1016.17
2018-05-18T09:05:40.491Z,1016.12
2018-05-18T09:06:40.512Z,1016.14
2018-05-18T09:07:40.535Z,1016.10
2018-05-18T09:08:40.559Z,1016.07
2018-05-18T09:09:40.583Z,1016.06
2018-05-18T09:10:40.608Z,1016.12
2018-05-18T09:11:40.634Z,1016.17
2018-05-18T09:12:40.658Z,1016.15
2018-05-18T09:13:40.682Z,1016.21
2018-05-18T09:14:40.707Z,1016.24
2018-05-18T09:15:40.731Z,1015.79
2018-05-18T09:16:40.758Z,1015.68
2018-05-18T09:17:40.784Z,1015.74
2018-05-18T09:18:40.811Z,1015.97
2018-05-18T09:19:40.835Z,1015.72
2018-05-18T09:20:40.863Z,1015.65
2018-05-18T09:21:40.887Z,1015.56
2018-05-18T09:22:40.912Z,1015.65
2018-05-18T09:23:40.942Z,1016.06
2018-05-18T09:24:40.964Z,1015.78
2018-05-18T09:25:40.997Z,1016.25
2018-05-18T09:26:41.015Z,1016.27
2018-05-18T09:27:41.040Z,1015.69
2018-05-18T09:28:41.133Z,1016.28
2018-05-18T09:29:41.092Z,1015.65
2018-05-18T09:30:41.117Z,1015.65
2018-05-18T09:31:41.142Z,1015.72
2018-05-18T09:32:41.167Z,1016.05
2018-05-18T09:33:41.193Z,1015.66
2018-05-18T09:34:41.224Z,1015.66
2018-05-18T09:35:41.243Z,1015.70
2018-05-18T09:36:41.267Z,1016.03
2018-05-18T09:37:41.294Z,1015.68
2018-05-18T09:38:41.317Z,1016.28
2018-05-18T09:39:41.355Z,1016.38
2018-05-18T09:40:41.367Z,1016.35
2018-05-18T09:41:41.392Z,1016.40
2018-05-18T09:42:41.418Z,1016.18
2018-05-18T09:43:41.442Z,1015.67
2018-05-18T09:44:41.469Z,1016.39
2018-05-18T09:45:41.492Z,1015.67
2018-05-18T09:46:41.524Z,1015.61
2018-05-18T09:47:41.541Z,1015.73
2018-05-18T09:48:41.568Z,1015.62
2018-05-18T09:49:41.593Z,1015.54
2018-05-18T09:50:41.619Z,1015.62
2018-05-18T09:51:41.645Z,1016.38
2018-05-18T09:52:41.668Z,1016.48
2018-05-18T09:53:41.694Z,1015.76
2018-05-18T09:54:41.875Z,1015.68
2018-05-18T09:55:41.749Z,1016.21
2018-05-18T09:56:41.771Z,1015.81
2018-05-18T09:57:41.797Z,1016.28
2018-05-18T09:58:41.821Z,1016.32
2018-05-18T09:59:41.847Z,1016.34
2018-05-18T10:00:41.883Z,1016.32
2018-05-18T10:01:41.898Z,1016.31
2018-05-18T10:02:41.924Z,1016.29
2018-05-18T10:03:41.949Z,1016.30
2018-05-18T10:04:41.975Z,1016.33
2018-05-18T10:05:42.003Z,1016.35
2018-05-18T10:06:42.030Z,1016.26
2018-05-18T10:07:42.053Z,1015.81
2018-05-18T10:08:42.082Z,1015.70
2018-05-18T10:09:42.111Z,1016.40
2018-05-18T10:10:42.133Z,1016.50
2018-05-18T10:11:42.160Z,1016.49
2018-05-18T10:12:42.188Z,1015.75
2018-05-18T10:13:42.215Z,1016.33
2018-05-18T10:14:42.242Z,1016.50
2018-05-18T10:15:42.269Z,1016.52
2018-05-18T10:16:42.295Z,1016.42
2018-05-18T10:17:42.426Z,1016.32
2018-05-18T10:18:42.478Z,1016.53
2018-05-18T10:19:42.377Z,1015.94
2018-05-18T10:20:42.405Z,1016.40
2018-05-18T10:21:42.431Z,1015.66
2018-05-18T10:22:42.459Z,1016.03
2018-05-18T10:23:42.495Z,1015.97
2018-05-18T10:24:42.516Z,1015.92
2018-05-18T10:25:42.546Z,1015.79
2018-05-18T10:26:42.569Z,1015.66
2018-05-18T10:27:42.595Z,1015.99
2018-05-18T10:28:42.623Z,1015.59
2018-05-18T10:29:42.651Z,1015.51
2018-05-18T10:30:42.678Z,1015.55
2018-05-18T10:31:42.703Z,1016.38
2018-05-18T10:32:42.733Z,1015.71
2018-05-18T10:33:42.758Z,1015.91
2018-05-18T10:34:42.788Z,1015.56
2018-05-18T10:35:42.811Z,1015.65
2018-05-18T10:36:42.839Z,1015.69
2018-05-18T10:37:42.865Z,1015.68
2018-05-18T10:38:42.898Z,1015.86
2018-05-18T10:39:42.948Z,1016.56
2018-05-18T10:40:42.945Z,1016.13
2018-05-18T10:41:42.969Z,1015.63
2018-05-18T10:42:42.997Z,1015.56
2018-05-18T10:43:43.022Z,1015.51
2018-05-18T10:44:43.049Z,1015.55
2018-05-18T10:45:43.074Z,1016.07
2018-05-18T10:46:43.103Z,1015.69
2018-05-18T10:47:43.127Z,1016.15
2018-05-18T10:48:43.153Z,1015.74
2018-05-18T10:49:43.178Z,1015.92
2018-05-18T10:50:43.204Z,1016.59
2018-05-18T10:51:43.233Z,1016.66
2018-05-18T10:52:43.254Z,1016.65
2018-05-18T10:53:43.282Z,1016.56
2018-05-18T10:54:43.312Z,1016.57
2018-05-18T10:55:43.332Z,1016.56
2018-05-18T10:56:43.360Z,1016.57
2018-05-18T10:57:43.385Z,1015.65
2018-05-18T10:58:43.410Z,1015.55
2018-05-18T10:59:43.436Z,1015.46
2018-05-18T11:00:43.465Z,1015.40
2018-05-18T11:01:43.488Z,1015.48
2018-05-18T11:02:43.516Z,1016.44
2018-05-18T11:03:43.540Z,1016.47
2018-05-18T11:04:43.568Z,1016.37
2018-05-18T11:05:43.593Z,1016.41
2018-05-18T11:06:43.620Z,1016.42
2018-05-18T11:07:43.647Z,1016.42
2018-05-18T11:08:43.672Z,1016.49
2018-05-18T11:09:43.699Z,1016.02
2018-05-18T11:10:43.725Z,1016.64
2018-05-18T11:11:43.751Z,1015.72
2018-05-18T11:12:43.778Z,1015.53
2018-05-18T11:13:43.804Z,1015.52
2018-05-18T11:14:43.833Z,1015.48
2018-05-18T11:15:43.859Z,1015.72
2018-05-18T11:16:43.883Z,1016.04
2018-05-18T11:17:43.915Z,1016.59
2018-05-18T11:18:44.036Z,1015.76
2018-05-18T11:19:43.966Z,1016.56
2018-05-18T11:20:43.992Z,1016.29
2018-05-18T11:21:44.021Z,1016.57
2018-05-18T11:22:44.047Z,1016.55
2018-05-18T11:23:44.076Z,1016.51
2018-05-18T11:24:44.105Z,1016.68
2018-05-18T11:25:44.126Z,1016.69
2018-05-18T11:26:44.157Z,1016.74
2018-05-18T11:27:44.181Z,1016.21
2018-05-18T11:28:44.205Z,1016.43
2018-05-18T11:29:44.233Z,1016.71
2018-05-18T11:30:44.264Z,1016.78
2018-05-18T11:31:44.288Z,1015.28
2018-05-18T11:32:44.315Z,1015.86
2018-05-18T11:33:44.339Z,1015.29
2018-05-18T11:34:44.368Z,1015.32
2018-05-18T11:35:44.399Z,1015.39
2018-05-18T11:36:44.423Z,1016.21
2018-05-18T11:37:44.450Z,1017.54
2018-05-18T11:38:44.477Z,1018.16
2018-05-18T11:39:44.501Z,1018.36
2018-05-18T11:40:44.530Z,1018.39
2018-05-18T11:41:44.555Z,1018.40
2018-05-18T11:42:44.585Z,1016.50
2018-05-18T11:43:44.611Z,1016.33
2018-05-18T11:44:44.638Z,1017.51
2018-05-18T11:45:44.664Z,1016.56
2018-05-18T11:46:44.690Z,1017.62
2018-05-18T11:47:44.717Z,1018.42
2018-05-18T11:48:44.742Z,1018.48
2018-05-18T11:49:44.772Z,1018.46
2018-05-18T11:50:44.796Z,1018.46
2018-05-18T11:51:44.822Z,1018.40
2018-05-18T11:52:44.857Z,1017.50
2018-05-18T11:53:44.876Z,1016.96
2018-05-18T11:54:44.917Z,1018.24
2018-05-18T11:55:45.066Z,1017.94
2018-05-18T11:56:44.978Z,1018.13
2018-05-18T11:57:45.037Z,1018.09
2018-05-18T11:58:45.026Z,1018.24
2018-05-18T11:59:45.039Z,1018.19
2018-05-18T12:00:45.066Z,1018.13
2018-05-18T12:01:45.094Z,1017.87
2018-05-18T12:02:45.121Z,1017.63
2018-05-18T12:03:45.153Z,1017.36
2018-05-18T12:04:45.177Z,1016.89
2018-05-18T12:05:45.203Z,1016.68